Time;durP1;ratioP1;P1;durP2;ratioP2;P2;SDS_P1;SDS_P2;PMS_P1;PMS_P2;Temp;Humidity;BMP_temperature;BMP_pressure;BME280_temperature;BME280_humidity;BME280_pressure;Samples;Min_cycle;Max_cycle;Signal;HPM_P1;HPM_P2
2022/12/12 00:01:26;;;;;;;6.38;1.55;;;24.50;99.90;;;;;;5044955;28;20060;-68
2022/12/12 00:03:54;;;;;;;6.53;1.40;;;25.20;99.90;;;;;;5046556;28;20021;-67
2022/12/12 00:06:22;;;;;;;6.38;2.35;;;25.60;99.90;;;;;;5052039;28;20025;-66
2022/12/12 00:08:50;;;;;;;8.30;1.80;;;25.60;99.90;;;;;;5046588;28;20048;-67
2022/12/12 00:11:22;;;;;;;4.55;1.58;;;25.60;99.90;;;;;;5052375;28;20025;-67
2022/12/12 00:13:49;;;;;;;3.67;1.60;;;25.60;99.90;;;;;;5049805;28;20024;-65
2022/12/12 00:16:17;;;;;;;2.92;0.90;;;25.50;99.90;;;;;;5044004;28;20048;-63
2022/12/12 00:18:44;;;;;;;2.60;0.75;;;25.30;99.90;;;;;;5040507;28;20025;-66
2022/12/12 00:21:18;;;;;;;4.93;1.25;;;25.00;99.90;;;;;;5035103;28;20018;-64
2022/12/12 00:23:46;;;;;;;3.03;1.42;;;24.60;99.90;;;;;;5056726;28;20051;-65
2022/12/12 00:26:31;;;;;;;3.30;0.50;;;24.00;99.90;;;;;;5047236;28;20036;-66
2022/12/12 00:29:00;;;;;;;2.17;0.52;;;23.60;99.30;;;;;;5036200;28;20021;-66
2022/12/12 00:31:28;;;;;;;2.35;0.68;;;23.30;99.90;;;;;;5038699;28;20026;-67
2022/12/12 00:33:55;;;;;;;1.48;0.45;;;23.00;99.90;;;;;;5033468;28;20101;-67
2022/12/12 00:36:26;;;;;;;1.65;0.32;;;22.80;99.60;;;;;;5042995;28;20434;-65
2022/12/12 00:38:54;;;;;;;1.52;0.63;;;22.60;94.70;;;;;;5041097;28;20033;-65
2022/12/12 00:41:21;;;;;;;0.50;0.30;;;22.70;97.80;;;;;;5045031;28;20085;-66
2022/12/12 00:43:49;;;;;;;2.30;0.60;;;22.60;98.70;;;;;;5044684;28;20045;-65
2022/12/12 00:46:22;;;;;;;0.95;0.32;;;22.50;98.80;;;;;;5058122;28;20524;-65
2022/12/12 00:48:50;;;;;;;1.35;0.40;;;22.40;99.20;;;;;;5063576;28;20029;-67
2022/12/12 00:51:22;;;;;;;0.65;0.30;;;22.30;98.00;;;;;;5048316;28;20087;-66
2022/12/12 00:53:50;;;;;;;1.35;0.40;;;22.20;98.20;;;;;;5043838;28;20104;-66
2022/12/12 00:56:22;;;;;;;0.55;0.30;;;22.10;97.50;;;;;;5052215;28;20092;-65
2022/12/12 00:58:50;;;;;;;0.25;0.25;;;22.00;97.70;;;;;;5031867;28;20075;-65
2022/12/12 01:01:25;;;;;;;1.27;0.20;;;21.90;98.40;;;;;;5044655;28;20065;-66
2022/12/12 01:03:57;;;;;;;0.80;0.35;;;21.80;99.80;;;;;;5043722;28;20042;-68
2022/12/12 01:06:25;;;;;;;1.38;0.38;;;21.80;99.90;;;;;;5036544;28;20128;-65
2022/12/12 01:08:53;;;;;;;0.85;0.40;;;21.70;99.60;;;;;;5045203;28;20057;-64
2022/12/12 01:11:21;;;;;;;0.65;0.45;;;21.80;99.90;;;;;;5045880;28;20121;-65
2022/12/12 01:13:50;;;;;;;2.22;0.28;;;22.00;99.90;;;;;;5039415;28;20741;-65
2022/12/12 01:16:18;;;;;;;1.73;0.40;;;22.60;99.90;;;;;;5038355;28;20030;-63
2022/12/12 01:18:46;;;;;;;0.88;0.40;;;23.00;98.60;;;;;;5051887;28;20036;-67
2022/12/12 01:21:16;;;;;;;0.55;0.40;;;23.40;98.30;;;;;;5038945;28;20073;-66
2022/12/12 01:23:44;;;;;;;0.57;0.30;;;23.50;95.30;;;;;;5045097;28;20136;-70
2022/12/12 01:26:17;;;;;;;0.57;0.20;;;23.50;96.20;;;;;;5042253;28;20041;-68
2022/12/12 01:28:45;;;;;;;2.25;0.30;;;23.50;95.00;;;;;;5040850;28;20082;-65
2022/12/12 01:31:13;;;;;;;0.38;0.20;;;23.50;96.00;;;;;;5035760;28;20037;-66
2022/12/12 01:33:44;;;;;;;1.02;0.28;;;23.50;94.80;;;;;;5037179;28;20056;-65
2022/12/12 01:36:16;;;;;;;0.40;0.20;;;23.60;96.20;;;;;;5046100;28;20028;-66
2022/12/12 01:38:46;;;;;;;0.10;0.10;;;23.60;94.60;;;;;;5034871;28;20052;-66
2022/12/12 01:41:13;;;;;;;0.82;0.30;;;23.70;95.10;;;;;;5040750;28;20103;-67
2022/12/12 01:43:41;;;;;;;0.60;0.20;;;24.50;97.20;;;;;;5038075;28;20123;-66
2022/12/12 01:46:41;;;;;;;0.40;0.20;;;25.50;95.30;;;;;;5037146;28;20040;-66
2022/12/12 01:49:23;;;;;;;0.60;0.20;;;26.50;92.00;;;;;;5045269;28;20029;-66
2022/12/12 01:51:53;;;;;;;0.20;0.17;;;26.90;90.10;;;;;;5042132;28;20029;-64
2022/12/12 01:54:42;;;;;;;0.32;0.10;;;27.30;90.40;;;;;;5045844;28;20021;-67
2022/12/12 01:57:17;;;;;;;0.98;0.15;;;27.50;83.70;;;;;;5040558;28;20083;-68
2022/12/12 01:59:46;;;;;;;0.32;0.20;;;27.40;79.50;;;;;;5036334;28;20025;-66
2022/12/12 02:02:13;;;;;;;5.07;0.28;;;27.10;80.10;;;;;;5042320;28;20503;-67
2022/12/12 02:04:42;;;;;;;1.50;0.22;;;27.00;81.30;;;;;;5041416;28;20052;-67
2022/12/12 02:07:09;;;;;;;1.90;0.20;;;27.30;80.00;;;;;;5038740;28;20374;-67
2022/12/12 02:09:37;;;;;;;0.47;0.20;;;28.00;81.50;;;;;;5042919;28;20028;-67
2022/12/12 02:12:05;;;;;;;0.75;0.30;;;28.40;76.30;;;;;;5042501;28;20383;-70
2022/12/12 02:14:37;;;;;;;1.02;0.20;;;28.90;76.40;;;;;;5037727;28;20502;-67
2022/12/12 02:17:31;;;;;;;0.75;0.13;;;29.40;75.30;;;;;;5042065;28;20041;-66
2022/12/12 02:20:11;;;;;;;0.70;0.30;;;29.70;71.20;;;;;;5042310;28;20025;-66
2022/12/12 02:22:53;;;;;;;0.30;0.20;;;30.30;68.30;;;;;;5052058;28;20032;-65
2022/12/12 02:25:26;;;;;;;0.68;0.30;;;30.70;66.80;;;;;;5034080;28;20096;-66
2022/12/12 02:28:14;;;;;;;0.30;0.20;;;31.00;67.60;;;;;;5051803;28;20021;-65
2022/12/12 02:31:12;;;;;;;1.27;0.25;;;30.90;62.90;;;;;;5032988;28;20076;-65
2022/12/12 02:33:51;;;;;;;1.80;0.55;;;30.30;61.40;;;;;;5060022;28;20043;-65
2022/12/12 02:36:26;;;;;;;0.88;0.35;;;30.50;61.50;;;;;;5039012;28;20025;-65
2022/12/12 02:38:53;;;;;;;2.08;0.63;;;30.20;57.40;;;;;;5047848;28;20024;-65
2022/12/12 02:41:32;;;;;;;2.67;0.60;;;29.70;59.10;;;;;;5038453;28;20078;-67
2022/12/12 02:44:14;;;;;;;1.38;0.50;;;29.20;59.40;;;;;;5047120;28;20041;-66
2022/12/12 02:46:50;;;;;;;0.93;0.30;;;28.70;55.70;;;;;;5040484;28;20040;-66
2022/12/12 02:49:24;;;;;;;4.80;0.60;;;28.40;56.40;;;;;;5062610;28;20497;-67
2022/12/12 02:51:54;;;;;;;2.83;0.82;;;28.40;57.10;;;;;;5038654;28;20417;-67
2022/12/12 02:54:22;;;;;;;1.83;0.68;;;28.20;54.90;;;;;;5061511;28;20039;-67
2022/12/12 02:57:00;;;;;;;3.97;0.65;;;27.90;54.20;;;;;;5044701;28;20056;-67
2022/12/12 02:59:34;;;;;;;0.98;0.50;;;27.80;54.90;;;;;;5047397;28;20508;-67
2022/12/12 03:02:29;;;;;;;2.45;0.77;;;27.80;56.80;;;;;;5046482;28;20017;-68
2022/12/12 03:08:16;;;;;;;2.00;0.80;;;29.50;56.70;;;;;;5047071;28;20063;-68
2022/12/12 03:11:05;;;;;;;2.63;0.70;;;30.40;54.80;;;;;;5041625;28;20052;-68
2022/12/12 03:13:58;;;;;;;1.63;0.52;;;30.80;50.40;;;;;;5041038;28;20032;-69
2022/12/12 03:16:43;;;;;;;3.55;0.70;;;30.90;50.90;;;;;;5042362;28;20474;-68
2022/12/12 03:19:25;;;;;;;;;;;31.20;51.10;;;;;;5048142;28;20435;-68
2022/12/12 03:22:06;;;;;;;2.92;0.82;;;31.00;50.20;;;;;;5035462;28;20346;-67
2022/12/12 03:24:47;;;;;;;2.60;0.73;;;30.50;49.50;;;;;;5043379;28;20375;-67
2022/12/12 03:27:26;;;;;;;1.77;0.60;;;30.40;50.50;;;;;;5042349;28;20075;-68
2022/12/12 03:30:23;;;;;;;0.80;0.45;;;30.30;51.00;;;;;;5049088;28;20714;-69
2022/12/12 03:32:57;;;;;;;4.25;0.90;;;30.40;51.30;;;;;;5048359;28;20045;-66
2022/12/12 03:35:36;;;;;;;5.50;1.10;;;30.70;50.30;;;;;;5038355;28;20393;-66
2022/12/12 03:38:24;;;;;;;4.20;0.88;;;30.60;49.50;;;;;;5035599;28;20100;-65
2022/12/12 03:41:00;;;;;;;2.33;0.52;;;30.30;50.00;;;;;;5044779;28;20043;-64
2022/12/12 03:43:49;;;;;;;6.80;1.35;;;29.60;50.80;;;;;;5049929;28;20996;-64
2022/12/12 03:46:39;;;;;;;3.00;1.02;;;29.70;51.60;;;;;;5049585;28;20051;-63
2022/12/12 03:49:32;;;;;;;4.15;1.10;;;29.70;49.20;;;;;;5059053;28;20033;-63
2022/12/12 03:52:13;;;;;;;13.73;7.10;;;29.40;51.50;;;;;;5052341;28;20036;-63
2022/12/12 03:54:48;;;;;;;2.97;1.52;;;29.30;49.50;;;;;;5055827;28;20040;-63
2022/12/12 03:57:21;;;;;;;2.45;0.70;;;29.50;50.90;;;;;;5044021;28;20078;-64
2022/12/12 04:00:04;;;;;;;4.05;1.73;;;29.80;48.90;;;;;;5059416;28;20543;-64
2022/12/12 04:02:34;;;;;;;4.10;0.80;;;29.80;50.50;;;;;;5052933;28;20419;-63
2022/12/12 04:05:16;;;;;;;5.75;0.95;;;30.10;49.50;;;;;;5037308;28;20068;-64
2022/12/12 04:08:06;;;;;;;1.88;0.70;;;30.20;49.80;;;;;;5040164;28;20056;-64
2022/12/12 04:13:34;;;;;;;3.85;1.10;;;30.70;50.10;;;;;;5054486;28;20544;-63
2022/12/12 04:16:12;;;;;;;3.30;0.70;;;30.80;48.10;;;;;;5049805;28;20087;-63
2022/12/12 04:18:57;;;;;;;2.85;0.88;;;30.80;48.50;;;;;;5049318;28;20477;-64
2022/12/12 04:24:48;;;;;;;2.25;0.70;;;30.30;49.50;;;;;;5049317;28;20083;-64
2022/12/12 04:27:25;;;;;;;1.90;0.80;;;30.50;49.50;;;;;;5061165;28;20104;-64
2022/12/12 04:30:21;;;;;;;3.65;0.95;;;30.60;47.70;;;;;;5062438;28;20052;-64
2022/12/12 04:33:03;;;;;;;1.50;0.55;;;30.20;49.40;;;;;;5052048;28;20037;-64
2022/12/12 04:35:44;;;;;;;2.70;0.68;;;30.40;49.60;;;;;;5058154;28;20466;-63
2022/12/12 04:38:23;;;;;;;3.63;1.23;;;30.10;48.70;;;;;;5059680;28;20028;-64
2022/12/12 04:40:58;;;;;;;5.38;1.52;;;29.70;48.70;;;;;;5038292;28;20393;-64
2022/12/12 04:43:32;;;;;;;3.92;1.30;;;29.60;49.60;;;;;;5055660;28;20060;-64
2022/12/12 04:46:13;;;;;;;2.60;0.90;;;29.10;48.90;;;;;;5052656;28;20056;-64
2022/12/12 04:48:53;;;;;;;3.15;1.17;;;28.70;49.70;;;;;;5050694;28;20307;-63
2022/12/12 04:51:30;;;;;;;3.53;0.93;;;28.10;49.80;;;;;;5059125;28;20024;-64
2022/12/12 04:54:23;;;;;;;4.97;1.35;;;28.00;52.30;;;;;;5044615;28;20029;-64
2022/12/12 04:56:55;;;;;;;4.10;0.75;;;28.30;50.50;;;;;;5046575;28;20566;-63
2022/12/12 04:59:23;;;;;;;5.22;0.90;;;28.10;49.90;;;;;;5039229;28;20486;-64
2022/12/12 05:02:03;;;;;;;9.18;2.00;;;27.90;49.60;;;;;;5050203;28;20576;-64
2022/12/12 05:04:48;;;;;;;7.35;1.33;;;28.10;48.80;;;;;;5056015;28;20077;-64
2022/12/12 05:07:30;;;;;;;5.70;0.70;;;28.10;48.80;;;;;;5029550;28;20045;-62
2022/12/12 05:09:59;;;;;;;2.80;1.10;;;28.00;50.40;;;;;;5049137;28;20044;-63
2022/12/12 05:12:26;;;;;;;5.25;1.20;;;27.80;48.80;;;;;;5045645;28;20022;-62
2022/12/12 05:14:53;;;;;;;2.35;0.65;;;27.60;48.50;;;;;;5030955;28;20029;-63
2022/12/12 05:17:30;;;;;;;2.53;0.88;;;27.50;49.10;;;;;;5049667;28;20048;-64
2022/12/12 05:19:58;;;;;;;1.50;0.60;;;27.60;49.40;;;;;;5050566;28;20028;-62
2022/12/12 05:22:25;;;;;;;3.08;1.10;;;27.60;46.20;;;;;;5048504;28;20033;-63
2022/12/12 05:24:52;;;;;;;1.20;0.60;;;27.50;46.50;;;;;;5055917;28;20039;-63
2022/12/12 05:27:19;;;;;;;1.75;1.13;;;27.70;47.20;;;;;;5039082;28;20362;-64
2022/12/12 05:29:46;;;;;;;2.38;0.65;;;28.00;46.20;;;;;;5037430;28;20029;-64
2022/12/12 05:32:14;;;;;;;3.10;0.70;;;28.10;44.90;;;;;;5042586;28;20022;-66
2022/12/12 05:34:41;;;;;;;1.08;0.40;;;28.20;43.20;;;;;;5038509;28;20445;-66
2022/12/12 05:37:08;;;;;;;1.70;0.50;;;28.30;44.30;;;;;;5034439;28;20359;-62
2022/12/12 05:39:35;;;;;;;3.28;0.70;;;28.40;43.50;;;;;;5036731;28;20028;-62
2022/12/12 05:42:03;;;;;;;1.60;0.50;;;27.90;42.30;;;;;;5059244;28;20031;-63
2022/12/12 05:44:30;;;;;;;1.98;0.63;;;27.40;43.50;;;;;;5050308;28;20103;-64
2022/12/12 05:46:57;;;;;;;2.72;0.40;;;27.10;43.80;;;;;;5054813;28;20036;-66
2022/12/12 05:49:24;;;;;;;3.47;0.90;;;27.00;44.20;;;;;;5060811;28;20431;-65
2022/12/12 05:51:51;;;;;;;1.65;0.82;;;26.80;43.50;;;;;;5053107;28;20424;-67
2022/12/12 05:54:19;;;;;;;3.58;0.60;;;26.40;41.90;;;;;;5056693;28;20048;-66
2022/12/12 05:56:46;;;;;;;2.17;0.45;;;26.20;42.70;;;;;;5045828;28;20029;-66
2022/12/12 05:59:13;;;;;;;3.95;0.70;;;26.50;44.00;;;;;;5045545;28;20412;-65
2022/12/12 06:01:40;;;;;;;2.10;0.40;;;26.60;43.00;;;;;;5040412;28;20029;-64
2022/12/12 06:04:08;;;;;;;6.35;0.60;;;26.50;42.30;;;;;;5051317;28;20112;-64
2022/12/12 06:06:35;;;;;;;2.53;0.70;;;26.80;42.50;;;;;;5055695;28;21231;-64
2022/12/12 06:09:02;;;;;;;5.10;0.47;;;26.90;41.10;;;;;;5042401;28;20029;-65
2022/12/12 06:11:30;;;;;;;2.42;0.32;;;26.90;41.40;;;;;;5043549;28;20109;-63
2022/12/12 06:13:57;;;;;;;2.40;0.32;;;26.90;40.00;;;;;;5035403;28;20033;-65
2022/12/12 06:16:24;;;;;;;1.77;0.40;;;26.30;40.30;;;;;;5051351;28;20060;-65
2022/12/12 06:18:53;;;;;;;1.27;0.30;;;26.30;41.30;;;;;;5053135;28;20464;-65
2022/12/12 06:21:21;;;;;;;5.95;0.73;;;26.00;41.20;;;;;;5043418;28;20418;-65
2022/12/12 06:23:49;;;;;;;1.23;0.45;;;25.60;41.50;;;;;;5043398;28;20026;-66
2022/12/12 06:26:18;;;;;;;4.43;0.65;;;25.30;42.40;;;;;;5041580;28;20377;-66
2022/12/12 06:28:46;;;;;;;2.85;0.40;;;25.10;40.70;;;;;;5040046;28;20149;-65
2022/12/12 06:31:15;;;;;;;6.53;0.52;;;25.20;41.80;;;;;;5041552;28;20021;-67
2022/12/12 06:33:43;;;;;;;3.10;0.47;;;25.60;41.30;;;;;;5040477;28;20033;-65
2022/12/12 06:36:22;;;;;;;3.20;0.70;;;25.80;41.20;;;;;;5042243;28;20449;-66
2022/12/12 06:38:59;;;;;;;1.38;0.32;;;25.60;41.60;;;;;;5043378;28;20033;-66
2022/12/12 06:41:29;;;;;;;1.65;0.30;;;25.50;42.00;;;;;;5042128;28;20017;-67
2022/12/12 06:43:57;;;;;;;2.40;0.45;;;25.70;41.20;;;;;;5037573;28;20041;-69
2022/12/12 06:46:28;;;;;;;0.43;0.30;;;25.50;40.70;;;;;;5038919;28;20037;-69
2022/12/12 06:48:57;;;;;;;1.77;0.80;;;25.50;40.10;;;;;;5042572;28;20425;-70
2022/12/12 06:51:32;;;;;;;1.77;0.40;;;25.70;38.80;;;;;;5035042;28;20040;-70
2022/12/12 06:53:59;;;;;;;2.30;0.50;;;25.70;38.10;;;;;;5041267;28;20745;-68
2022/12/12 06:56:27;;;;;;;1.55;0.55;;;25.50;39.40;;;;;;5042442;28;20092;-66
2022/12/12 06:58:55;;;;;;;6.32;1.08;;;25.50;39.40;;;;;;5039087;28;20124;-67
2022/12/12 07:01:23;;;;;;;3.25;0.85;;;25.60;39.60;;;;;;5039603;28;20024;-67
2022/12/12 07:03:52;;;;;;;1.27;0.30;;;25.80;39.60;;;;;;5038411;28;20030;-68
2022/12/12 07:06:21;;;;;;;0.93;0.55;;;25.80;39.50;;;;;;5038356;28;20170;-67
2022/12/12 07:08:50;;;;;;;3.20;0.30;;;26.00;39.60;;;;;;5040374;28;20543;-69
2022/12/12 07:11:21;;;;;;;4.97;0.68;;;26.00;39.20;;;;;;5040244;28;20029;-68
2022/12/12 07:13:49;;;;;;;3.15;0.47;;;25.90;39.00;;;;;;5037695;28;21042;-67
2022/12/12 07:16:16;;;;;;;5.40;0.50;;;25.90;39.10;;;;;;5043481;28;20025;-69
2022/12/12 07:18:43;;;;;;;4.72;0.50;;;25.60;37.50;;;;;;5042749;28;20043;-68
2022/12/12 07:21:16;;;;;;;4.85;0.90;;;25.30;37.60;;;;;;5041831;28;20021;-66
2022/12/12 07:23:44;;;;;;;10.20;1.10;;;25.10;37.60;;;;;;5038130;28;20033;-69
2022/12/12 07:26:21;;;;;;;8.15;0.80;;;24.60;37.60;;;;;;5038336;28;20029;-68
2022/12/12 07:28:50;;;;;;;7.50;1.27;;;24.30;36.60;;;;;;5038892;28;20865;-68
2022/12/12 07:31:20;;;;;;;2.75;0.40;;;24.10;37.60;;;;;;5037919;28;20018;-68
2022/12/12 07:33:47;;;;;;;2.45;0.40;;;24.00;38.00;;;;;;5036208;28;20078;-68
2022/12/12 07:36:15;;;;;;;2.13;0.32;;;24.00;39.10;;;;;;5036425;28;20029;-67
2022/12/12 07:38:43;;;;;;;3.92;0.40;;;24.00;38.80;;;;;;5036321;28;20052;-67
2022/12/12 07:41:16;;;;;;;3.75;0.43;;;24.00;39.00;;;;;;5040438;28;20017;-68
2022/12/12 07:43:45;;;;;;;7.30;0.60;;;23.90;38.90;;;;;;5041176;28;20045;-68
2022/12/12 07:46:19;;;;;;;3.67;1.17;;;23.80;39.70;;;;;;5039766;28;20040;-67
2022/12/12 07:48:46;;;;;;;5.03;0.52;;;23.60;39.90;;;;;;5041883;28;20032;-68
2022/12/12 07:51:14;;;;;;;0.95;0.32;;;23.40;38.50;;;;;;5041651;28;20033;-67
2022/12/12 07:53:42;;;;;;;5.72;0.45;;;23.20;38.70;;;;;;5054438;28;20028;-66
2022/12/12 07:56:12;;;;;;;7.70;1.50;;;23.10;38.20;;;;;;5048888;28;20033;-67
2022/12/12 07:58:39;;;;;;;2.25;0.30;;;23.00;38.00;;;;;;5049818;28;20103;-68
2022/12/12 08:01:18;;;;;;;0.98;0.30;;;22.80;38.80;;;;;;5044751;28;20040;-68
2022/12/12 08:03:47;;;;;;;1.23;0.57;;;22.70;39.00;;;;;;5051758;28;20051;-68
2022/12/12 08:06:16;;;;;;;8.52;0.60;;;22.50;38.70;;;;;;5054639;28;20045;-69
2022/12/12 08:08:45;;;;;;;12.93;1.27;;;22.30;38.60;;;;;;5042491;28;20070;-69
2022/12/12 08:11:15;;;;;;;1.85;0.40;;;22.20;39.30;;;;;;5056047;28;20081;-67
2022/12/12 08:13:43;;;;;;;1.65;0.40;;;22.20;38.70;;;;;;5055497;28;20695;-67
2022/12/12 08:16:19;;;;;;;2.53;0.30;;;22.10;38.70;;;;;;5046884;28;20032;-68
2022/12/12 08:18:47;;;;;;;9.20;0.95;;;22.00;38.90;;;;;;5048646;28;20035;-68
2022/12/12 08:21:16;;;;;;;8.23;2.05;;;21.90;39.00;;;;;;5054135;28;20118;-70
2022/12/12 08:23:43;;;;;;;3.15;0.60;;;21.90;40.70;;;;;;5053324;28;20029;-68
2022/12/12 08:26:13;;;;;;;2.50;0.38;;;21.80;40.30;;;;;;5030429;28;20457;-69
2022/12/12 08:28:47;;;;;;;0.80;0.40;;;21.70;39.90;;;;;;5034376;28;20025;-69
2022/12/12 08:31:16;;;;;;;6.97;0.52;;;21.60;40.50;;;;;;5041621;28;20025;-69
2022/12/12 08:33:44;;;;;;;2.40;0.40;;;21.50;40.80;;;;;;5033346;28;20091;-68
2022/12/12 08:36:16;;;;;;;2.88;0.40;;;21.40;40.70;;;;;;5038976;28;20558;-67
2022/12/12 08:38:43;;;;;;;3.42;0.40;;;21.30;40.90;;;;;;5034670;28;20025;-68
2022/12/12 08:41:12;;;;;;;0.85;0.40;;;21.20;40.90;;;;;;5058810;28;20036;-69
2022/12/12 08:43:40;;;;;;;1.73;0.35;;;21.20;41.30;;;;;;5029493;28;20048;-69
2022/12/12 08:46:09;;;;;;;2.42;0.40;;;21.10;41.50;;;;;;5059070;28;20457;-69
2022/12/12 08:48:36;;;;;;;2.28;0.45;;;21.00;41.70;;;;;;5036689;28;20485;-69
2022/12/12 08:51:04;;;;;;;0.63;0.30;;;20.90;42.20;;;;;;5044996;28;20033;-68
2022/12/12 08:53:31;;;;;;;1.50;0.43;;;20.80;41.40;;;;;;5056170;28;20523;-69
2022/12/12 08:55:58;;;;;;;1.98;0.20;;;20.80;41.60;;;;;;5055891;28;20078;-68
2022/12/12 08:58:25;;;;;;;2.42;0.75;;;20.70;42.10;;;;;;5044457;28;20029;-69
2022/12/12 09:00:53;;;;;;;6.13;0.90;;;20.70;41.80;;;;;;5060852;28;20017;-70
2022/12/12 09:03:20;;;;;;;7.43;0.88;;;20.60;42.00;;;;;;5042890;28;20712;-69
2022/12/12 09:05:47;;;;;;;3.05;0.30;;;20.40;42.80;;;;;;5039739;28;20041;-72
2022/12/12 09:08:15;;;;;;;0.63;0.30;;;20.30;42.50;;;;;;5052419;28;20017;-66
2022/12/12 09:10:42;;;;;;;1.13;0.25;;;20.30;42.60;;;;;;5037881;28;20388;-67
2022/12/12 09:13:10;;;;;;;3.05;0.45;;;20.30;42.70;;;;;;5042602;28;20036;-67
2022/12/12 09:15:38;;;;;;;3.47;0.57;;;20.20;42.20;;;;;;5046793;28;20037;-67
2022/12/12 09:18:05;;;;;;;2.65;0.60;;;20.10;42.20;;;;;;5048031;28;20025;-67
2022/12/12 09:20:32;;;;;;;6.15;0.50;;;20.00;42.80;;;;;;5033223;28;20401;-66
2022/12/12 09:23:00;;;;;;;1.95;0.40;;;20.00;42.80;;;;;;5028647;28;20029;-68
2022/12/12 09:25:27;;;;;;;1.80;0.43;;;20.00;42.30;;;;;;5034361;28;20040;-68
2022/12/12 09:27:54;;;;;;;3.38;0.50;;;20.00;43.20;;;;;;5041353;28;20060;-67
2022/12/12 09:30:21;;;;;;;3.17;0.20;;;19.90;43.20;;;;;;5038928;28;20037;-67
2022/12/12 09:32:48;;;;;;;0.93;0.30;;;19.80;43.20;;;;;;5052747;28;20157;-69
2022/12/12 09:35:16;;;;;;;0.55;0.30;;;19.80;43.80;;;;;;5034136;28;20043;-70
2022/12/12 09:37:43;;;;;;;1.02;0.30;;;19.60;44.10;;;;;;5042525;28;20025;-71
2022/12/12 09:40:18;;;;;;;3.65;0.47;;;19.40;44.60;;;;;;5031318;28;20021;-71
2022/12/12 09:42:51;;;;;;;1.35;0.60;;;19.30;45.10;;;;;;5044497;28;20029;-72
2022/12/12 09:45:19;;;;;;;5.93;0.60;;;19.20;45.20;;;;;;5028955;28;20045;-68
2022/12/12 09:47:50;;;;;;;1.90;1.10;;;19.20;45.20;;;;;;5035487;28;20036;-66
2022/12/12 09:50:23;;;;;;;1.60;0.30;;;19.20;45.70;;;;;;5033894;28;20041;-68
2022/12/12 09:52:51;;;;;;;6.80;0.77;;;19.20;45.50;;;;;;5045473;28;20029;-68
2022/12/12 09:55:34;;;;;;;0.25;0.20;;;19.10;45.90;;;;;;5055883;28;20063;-67
2022/12/12 09:58:40;;;;;;;2.08;0.35;;;19.20;46.00;;;;;;5047709;28;20426;-68
2022/12/12 10:01:19;;;;;;;0.68;0.38;;;19.10;46.40;;;;;;5044533;28;20067;-69
2022/12/12 10:04:12;;;;;;;2.97;0.60;;;18.90;46.80;;;;;;5037740;28;20028;-69
2022/12/12 10:06:48;;;;;;;2.00;0.75;;;18.70;47.20;;;;;;5040725;28;20520;-67
2022/12/12 10:09:42;;;;;;;1.05;0.40;;;18.50;47.50;;;;;;5043761;28;20075;-68
2022/12/12 10:12:14;;;;;;;7.93;0.90;;;18.60;47.20;;;;;;5032106;28;20063;-68
2022/12/12 10:14:57;;;;;;;2.72;0.65;;;18.60;47.50;;;;;;5035078;28;20110;-67
2022/12/12 10:17:31;;;;;;;1.73;0.30;;;18.50;47.60;;;;;;5043160;28;20029;-68
2022/12/12 10:20:21;;;;;;;3.38;0.40;;;18.40;48.10;;;;;;5040010;28;20108;-67
2022/12/12 10:23:06;;;;;;;0.90;0.30;;;18.30;47.70;;;;;;5031107;28;20478;-67
2022/12/12 10:26:01;;;;;;;1.63;0.30;;;18.30;48.20;;;;;;5036093;28;20044;-67
2022/12/12 10:28:31;;;;;;;1.40;0.30;;;18.10;48.40;;;;;;5040079;28;20108;-68
2022/12/12 10:31:14;;;;;;;0.85;0.40;;;17.90;49.00;;;;;;5045129;28;20028;-67
2022/12/12 10:34:17;;;;;;;1.35;0.40;;;17.90;49.10;;;;;;5032851;28;20124;-68
2022/12/12 10:37:06;;;;;;;1.45;0.40;;;18.10;48.10;;;;;;5043593;28;20127;-66
2022/12/12 10:39:48;;;;;;;3.80;0.40;;;18.20;47.50;;;;;;5032292;28;20033;-66
2022/12/12 10:42:37;;;;;;;4.53;0.40;;;18.30;47.50;;;;;;5045550;28;20090;-66
2022/12/12 10:45:18;;;;;;;1.80;0.40;;;18.30;47.80;;;;;;5037023;28;20095;-67
2022/12/12 10:47:45;;;;;;;2.08;0.50;;;18.20;47.90;;;;;;5038556;28;20433;-66
2022/12/12 10:50:31;;;;;;;1.63;0.60;;;18.10;48.00;;;;;;5033245;28;20040;-68
2022/12/12 10:52:59;;;;;;;1.95;0.35;;;18.00;48.50;;;;;;5048346;28;20048;-69
2022/12/12 10:55:38;;;;;;;2.55;0.40;;;18.00;48.30;;;;;;5033423;28;20095;-68
2022/12/12 10:58:06;;;;;;;0.73;0.20;;;17.90;48.80;;;;;;5031889;28;20192;-71
2022/12/12 11:00:40;;;;;;;0.90;0.30;;;17.80;48.90;;;;;;5047399;28;20029;-68
2022/12/12 11:03:26;;;;;;;2.72;0.30;;;17.80;49.30;;;;;;5051239;28;20038;-68
2022/12/12 11:05:56;;;;;;;5.15;0.80;;;17.70;49.60;;;;;;5043269;28;20041;-69
2022/12/12 11:08:31;;;;;;;3.33;0.60;;;17.70;49.90;;;;;;5049017;28;20025;-69
2022/12/12 11:11:02;;;;;;;4.88;0.43;;;17.70;49.10;;;;;;5042953;28;20025;-69
2022/12/12 11:13:29;;;;;;;0.80;0.55;;;17.60;48.80;;;;;;5040047;28;20029;-71
2022/12/12 11:16:12;;;;;;;0.52;0.30;;;17.60;48.70;;;;;;5061738;28;20127;-72
2022/12/12 11:18:39;;;;;;;3.33;0.65;;;17.60;48.90;;;;;;5050812;28;20043;-69
2022/12/12 11:21:10;;;;;;;2.78;0.40;;;17.60;48.50;;;;;;5048590;28;20047;-69
2022/12/12 11:23:42;;;;;;;2.50;0.93;;;17.60;49.00;;;;;;5055608;28;20551;-68
2022/12/12 11:26:18;;;;;;;1.67;0.32;;;17.70;48.40;;;;;;5041938;28;20037;-69
2022/12/12 11:28:58;;;;;;;1.30;0.40;;;17.70;48.20;;;;;;5034052;28;20021;-69
2022/12/12 11:31:30;;;;;;;0.95;0.30;;;17.50;49.10;;;;;;5042481;28;20036;-69
2022/12/12 11:34:05;;;;;;;1.10;0.30;;;17.40;49.10;;;;;;5051107;28;20418;-70
2022/12/12 11:36:37;;;;;;;0.57;0.30;;;17.30;50.10;;;;;;5048496;28;20029;-69
2022/12/12 11:39:40;;;;;;;1.23;0.40;;;17.20;49.40;;;;;;5052721;28;20480;-67
2022/12/12 11:42:14;;;;;;;1.48;0.30;;;17.20;50.30;;;;;;5045219;28;20112;-69
2022/12/12 11:44:42;;;;;;;4.10;0.30;;;17.10;49.40;;;;;;5037816;28;20049;-70
2022/12/12 11:47:22;;;;;;;1.05;0.40;;;17.10;49.80;;;;;;5045429;28;20493;-71
2022/12/12 11:49:52;;;;;;;0.65;0.20;;;17.00;50.00;;;;;;5059139;28;20024;-71
2022/12/12 11:52:26;;;;;;;1.75;0.35;;;16.90;50.30;;;;;;5039885;28;20438;-70
2022/12/12 11:54:57;;;;;;;1.50;0.30;;;16.80;50.30;;;;;;5041974;28;20473;-69
2022/12/12 11:58:06;;;;;;;1.75;0.30;;;16.70;50.60;;;;;;5044231;28;20379;-70
2022/12/12 12:00:44;;;;;;;3.40;0.30;;;16.60;50.80;;;;;;5063501;28;20116;-69
2022/12/12 12:03:23;;;;;;;5.57;0.38;;;16.60;50.80;;;;;;5051219;28;20125;-71
2022/12/12 12:06:13;;;;;;;2.33;0.65;;;16.60;51.20;;;;;;5049142;28;20033;-68
2022/12/12 12:09:08;;;;;;;2.65;0.70;;;16.50;51.10;;;;;;5041629;28;20032;-70
2022/12/12 12:12:04;;;;;;;3.67;0.43;;;16.50;51.40;;;;;;5041725;28;20488;-71
2022/12/12 12:14:44;;;;;;;2.15;0.45;;;16.40;52.20;;;;;;5051947;28;20392;-69
2022/12/12 12:17:14;;;;;;;1.92;0.55;;;16.30;52.00;;;;;;5050528;28;20029;-71
2022/12/12 12:19:51;;;;;;;1.70;0.28;;;16.30;51.90;;;;;;5048329;28;20025;-70
2022/12/12 12:22:42;;;;;;;1.30;0.57;;;16.20;52.10;;;;;;5042459;28;20044;-69
2022/12/12 12:25:23;;;;;;;1.98;0.50;;;16.10;52.80;;;;;;5046608;28;20033;-69
2022/12/12 12:28:06;;;;;;;4.22;0.40;;;16.00;52.90;;;;;;5034949;28;20490;-69
2022/12/12 12:31:14;;;;;;;2.25;0.45;;;15.80;54.00;;;;;;5043343;28;20128;-69
2022/12/12 12:33:44;;;;;;;2.42;0.45;;;16.00;52.80;;;;;;5042521;28;20037;-70
2022/12/12 12:36:23;;;;;;;0.90;0.40;;;16.00;52.90;;;;;;5030088;28;20037;-70
2022/12/12 12:38:55;;;;;;;1.20;0.20;;;16.00;53.60;;;;;;5035557;28;20119;-69
2022/12/12 12:42:07;;;;;;;0.30;0.20;;;16.00;52.70;;;;;;5047347;28;20363;-68
2022/12/12 12:44:39;;;;;;;1.98;0.40;;;15.90;53.70;;;;;;5061162;28;20071;-70
2022/12/12 12:47:37;;;;;;;3.38;0.30;;;15.70;53.30;;;;;;5054043;28;20049;-69
2022/12/12 12:50:30;;;;;;;2.22;0.50;;;15.70;53.80;;;;;;5035358;28;20038;-70
2022/12/12 12:53:26;;;;;;;5.97;0.30;;;15.60;54.00;;;;;;5039993;28;20020;-68
2022/12/12 12:55:58;;;;;;;3.50;0.40;;;15.40;54.40;;;;;;5045289;28;20120;-69
2022/12/12 12:58:34;;;;;;;2.60;0.47;;;15.30;54.80;;;;;;5038718;28;20029;-70
2022/12/12 13:01:17;;;;;;;3.58;0.63;;;15.20;55.30;;;;;;5045473;28;20791;-70
2022/12/12 13:04:20;;;;;;;3.22;0.52;;;15.20;55.10;;;;;;5037611;28;20028;-68
2022/12/12 13:06:53;;;;;;;6.75;0.50;;;15.20;55.80;;;;;;5034770;28;20158;-68
2022/12/12 13:09:40;;;;;;;3.15;0.35;;;15.20;55.20;;;;;;5042284;28;20037;-71
2022/12/12 13:12:47;;;;;;;1.52;0.35;;;15.20;55.30;;;;;;5038810;28;20040;-70
2022/12/12 13:15:52;;;;;;;2.03;0.40;;;15.20;55.70;;;;;;5033704;28;20064;-69
2022/12/12 13:18:19;;;;;;;3.17;0.40;;;15.20;56.10;;;;;;5043661;28;20391;-70
2022/12/12 13:21:07;;;;;;;0.38;0.10;;;15.10;56.00;;;;;;5043026;28;20944;-70
2022/12/12 13:24:01;;;;;;;2.22;0.35;;;15.10;56.00;;;;;;5041680;28;20021;-71
2022/12/12 13:26:48;;;;;;;1.73;0.40;;;15.10;55.70;;;;;;5053956;28;20436;-69
2022/12/12 13:29:42;;;;;;;2.97;1.02;;;15.20;55.60;;;;;;5040747;28;20029;-71
2022/12/12 13:32:12;;;;;;;2.13;0.30;;;15.40;54.40;;;;;;5052887;28;20052;-72
2022/12/12 13:34:45;;;;;;;2.42;0.32;;;15.50;54.30;;;;;;5050797;28;20021;-71
2022/12/12 13:37:20;;;;;;;3.60;0.82;;;15.60;53.80;;;;;;5038278;28;20421;-69